sensor_id;sensor_type;location;lat;lon;timestamp;temperature;humidity
6654;DHT22;3363;50.942;7.034;2022-08-01T00:00:49;23.90;79.20
6654;DHT22;3363;50.942;7.034;2022-08-01T00:03:17;24.00;81.40
6654;DHT22;3363;50.942;7.034;2022-08-01T00:05:44;24.10;77.20
6654;DHT22;3363;50.942;7.034;2022-08-01T00:08:13;24.20;75.90
6654;DHT22;3363;50.942;7.034;2022-08-01T00:10:40;24.30;76.80
6654;DHT22;3363;50.942;7.034;2022-08-01T00:13:07;24.40;75.40
6654;DHT22;3363;50.942;7.034;2022-08-01T00:15:34;24.20;75.10
6654;DHT22;3363;50.942;7.034;2022-08-01T00:18:01;24.30;73.20
6654;DHT22;3363;50.942;7.034;2022-08-01T00:20:28;24.00;74.40
6654;DHT22;3363;50.942;7.034;2022-08-01T00:22:55;24.20;75.30
6654;DHT22;3363;50.942;7.034;2022-08-01T00:25:23;24.10;74.70
6654;DHT22;3363;50.942;7.034;2022-08-01T00:27:50;24.00;80.30
6654;DHT22;3363;50.942;7.034;2022-08-01T00:30:17;24.00;78.10
6654;DHT22;3363;50.942;7.034;2022-08-01T00:32:44;24.00;77.70
6654;DHT22;3363;50.942;7.034;2022-08-01T00:35:10;24.10;78.60
6654;DHT22;3363;50.942;7.034;2022-08-01T00:37:38;24.00;81.10
6654;DHT22;3363;50.942;7.034;2022-08-01T00:40:06;24.00;79.90
6654;DHT22;3363;50.942;7.034;2022-08-01T00:42:35;24.00;79.70
6654;DHT22;3363;50.942;7.034;2022-08-01T00:45:02;24.00;80.30
6654;DHT22;3363;50.942;7.034;2022-08-01T00:47:30;23.80;82.20
6654;DHT22;3363;50.942;7.034;2022-08-01T00:49:57;23.80;82.40
6654;DHT22;3363;50.942;7.034;2022-08-01T00:52:24;23.70;87.90
6654;DHT22;3363;50.942;7.034;2022-08-01T00:54:51;23.70;85.10
6654;DHT22;3363;50.942;7.034;2022-08-01T00:57:18;23.70;84.40
6654;DHT22;3363;50.942;7.034;2022-08-01T00:59:46;23.70;84.10
6654;DHT22;3363;50.942;7.034;2022-08-01T01:02:13;23.80;83.40
6654;DHT22;3363;50.942;7.034;2022-08-01T01:04:40;23.90;82.50
6654;DHT22;3363;50.942;7.034;2022-08-01T01:07:09;23.70;84.10
6654;DHT22;3363;50.942;7.034;2022-08-01T01:09:42;23.70;83.80
6654;DHT22;3363;50.942;7.034;2022-08-01T01:12:15;23.70;83.80
6654;DHT22;3363;50.942;7.034;2022-08-01T01:14:50;23.70;83.70
6654;DHT22;3363;50.942;7.034;2022-08-01T01:17:24;23.60;83.90
6654;DHT22;3363;50.942;7.034;2022-08-01T01:19:54;23.80;83.20
6654;DHT22;3363;50.942;7.034;2022-08-01T01:22:25;23.50;86.20
6654;DHT22;3363;50.942;7.034;2022-08-01T01:25:04;23.60;85.90
6654;DHT22;3363;50.942;7.034;2022-08-01T01:27:39;23.80;83.00
6654;DHT22;3363;50.942;7.034;2022-08-01T01:30:13;23.80;82.40
6654;DHT22;3363;50.942;7.034;2022-08-01T01:32:41;23.80;82.40
6654;DHT22;3363;50.942;7.034;2022-08-01T01:35:11;23.70;83.10
6654;DHT22;3363;50.942;7.034;2022-08-01T01:37:40;23.40;87.00
6654;DHT22;3363;50.942;7.034;2022-08-01T01:40:09;23.40;87.60
6654;DHT22;3363;50.942;7.034;2022-08-01T01:42:37;23.50;87.50
6654;DHT22;3363;50.942;7.034;2022-08-01T01:45:05;23.60;85.30
6654;DHT22;3363;50.942;7.034;2022-08-01T01:47:35;23.60;85.20
6654;DHT22;3363;50.942;7.034;2022-08-01T01:50:03;23.80;83.50
6654;DHT22;3363;50.942;7.034;2022-08-01T01:52:32;23.70;83.80
6654;DHT22;3363;50.942;7.034;2022-08-01T01:54:59;23.60;86.30
6654;DHT22;3363;50.942;7.034;2022-08-01T01:57:27;23.30;88.20
6654;DHT22;3363;50.942;7.034;2022-08-01T01:59:55;23.60;85.90
6654;DHT22;3363;50.942;7.034;2022-08-01T02:02:22;23.50;86.90
6654;DHT22;3363;50.942;7.034;2022-08-01T02:04:52;23.50;87.10
6654;DHT22;3363;50.942;7.034;2022-08-01T02:07:20;23.50;86.80
6654;DHT22;3363;50.942;7.034;2022-08-01T02:09:48;23.40;87.90
6654;DHT22;3363;50.942;7.034;2022-08-01T02:12:16;23.30;88.20
6654;DHT22;3363;50.942;7.034;2022-08-01T02:14:44;23.20;90.10
6654;DHT22;3363;50.942;7.034;2022-08-01T02:17:12;23.20;90.40
6654;DHT22;3363;50.942;7.034;2022-08-01T02:19:43;23.20;90.10
6654;DHT22;3363;50.942;7.034;2022-08-01T02:22:13;23.40;88.20
6654;DHT22;3363;50.942;7.034;2022-08-01T02:24:46;23.30;88.30
6654;DHT22;3363;50.942;7.034;2022-08-01T02:27:17;23.40;90.10
6654;DHT22;3363;50.942;7.034;2022-08-01T02:29:50;23.20;89.80
6654;DHT22;3363;50.942;7.034;2022-08-01T02:32:19;23.20;90.00
6654;DHT22;3363;50.942;7.034;2022-08-01T02:34:50;23.40;88.40
6654;DHT22;3363;50.942;7.034;2022-08-01T02:37:19;23.50;87.40
6654;DHT22;3363;50.942;7.034;2022-08-01T02:39:47;23.30;88.80
6654;DHT22;3363;50.942;7.034;2022-08-01T02:42:18;23.40;87.30
6654;DHT22;3363;50.942;7.034;2022-08-01T02:44:45;23.50;86.50
6654;DHT22;3363;50.942;7.034;2022-08-01T02:47:13;23.40;86.80
6654;DHT22;3363;50.942;7.034;2022-08-01T02:49:42;23.40;87.40
6654;DHT22;3363;50.942;7.034;2022-08-01T02:52:11;23.30;87.60
6654;DHT22;3363;50.942;7.034;2022-08-01T02:54:41;23.30;88.00
6654;DHT22;3363;50.942;7.034;2022-08-01T02:57:08;23.40;89.80
6654;DHT22;3363;50.942;7.034;2022-08-01T02:59:36;23.30;88.70
6654;DHT22;3363;50.942;7.034;2022-08-01T03:02:04;23.30;88.20
6654;DHT22;3363;50.942;7.034;2022-08-01T03:04:32;23.30;87.40
6654;DHT22;3363;50.942;7.034;2022-08-01T03:07:01;23.30;88.10
6654;DHT22;3363;50.942;7.034;2022-08-01T03:09:30;23.40;87.80
6654;DHT22;3363;50.942;7.034;2022-08-01T03:12:01;23.40;87.10
6654;DHT22;3363;50.942;7.034;2022-08-01T03:14:30;23.50;87.80
6654;DHT22;3363;50.942;7.034;2022-08-01T03:16:59;23.50;84.60
6654;DHT22;3363;50.942;7.034;2022-08-01T03:19:27;23.40;86.30
6654;DHT22;3363;50.942;7.034;2022-08-01T03:21:56;23.50;85.70
6654;DHT22;3363;50.942;7.034;2022-08-01T03:24:25;23.50;85.00
6654;DHT22;3363;50.942;7.034;2022-08-01T03:26:52;23.30;88.00
6654;DHT22;3363;50.942;7.034;2022-08-01T03:29:22;23.10;91.60
6654;DHT22;3363;50.942;7.034;2022-08-01T03:31:52;23.00;91.10
6654;DHT22;3363;50.942;7.034;2022-08-01T03:34:20;22.90;91.90
6654;DHT22;3363;50.942;7.034;2022-08-01T03:36:48;23.00;92.60
6654;DHT22;3363;50.942;7.034;2022-08-01T03:39:16;23.00;92.40
6654;DHT22;3363;50.942;7.034;2022-08-01T03:41:46;22.90;91.50
6654;DHT22;3363;50.942;7.034;2022-08-01T03:44:24;23.00;91.90
6654;DHT22;3363;50.942;7.034;2022-08-01T03:46:54;22.90;92.10
6654;DHT22;3363;50.942;7.034;2022-08-01T03:49:23;22.90;92.00
6654;DHT22;3363;50.942;7.034;2022-08-01T03:51:52;23.10;90.70
6654;DHT22;3363;50.942;7.034;2022-08-01T03:54:21;23.10;90.20
6654;DHT22;3363;50.942;7.034;2022-08-01T03:56:50;23.10;90.50
6654;DHT22;3363;50.942;7.034;2022-08-01T03:59:18;23.10;90.70
6654;DHT22;3363;50.942;7.034;2022-08-01T04:01:47;22.90;91.90
6654;DHT22;3363;50.942;7.034;2022-08-01T04:04:14;23.10;90.70
6654;DHT22;3363;50.942;7.034;2022-08-01T04:06:41;23.10;91.60
6654;DHT22;3363;50.942;7.034;2022-08-01T04:09:10;22.90;91.30
6654;DHT22;3363;50.942;7.034;2022-08-01T04:11:38;23.00;92.30
6654;DHT22;3363;50.942;7.034;2022-08-01T04:14:07;22.80;94.00
6654;DHT22;3363;50.942;7.034;2022-08-01T04:16:34;23.00;93.00
6654;DHT22;3363;50.942;7.034;2022-08-01T04:19:05;22.90;92.20
6654;DHT22;3363;50.942;7.034;2022-08-01T04:21:33;23.00;92.10
6654;DHT22;3363;50.942;7.034;2022-08-01T04:24:03;22.90;92.40
6654;DHT22;3363;50.942;7.034;2022-08-01T04:26:33;22.90;93.10
6654;DHT22;3363;50.942;7.034;2022-08-01T04:29:02;22.80;92.90
6654;DHT22;3363;50.942;7.034;2022-08-01T04:31:30;22.70;94.00
6654;DHT22;3363;50.942;7.034;2022-08-01T04:33:58;22.70;96.90
6654;DHT22;3363;50.942;7.034;2022-08-01T04:36:27;22.80;93.60
6654;DHT22;3363;50.942;7.034;2022-08-01T04:38:56;23.00;94.00
6654;DHT22;3363;50.942;7.034;2022-08-01T04:41:25;23.10;91.60
6654;DHT22;3363;50.942;7.034;2022-08-01T04:43:52;23.30;90.40
6654;DHT22;3363;50.942;7.034;2022-08-01T04:46:20;23.30;89.80
6654;DHT22;3363;50.942;7.034;2022-08-01T04:48:47;23.40;89.00
6654;DHT22;3363;50.942;7.034;2022-08-01T04:51:15;23.20;90.40
6654;DHT22;3363;50.942;7.034;2022-08-01T04:53:44;23.00;93.00
6654;DHT22;3363;50.942;7.034;2022-08-01T04:56:12;22.90;92.30
6654;DHT22;3363;50.942;7.034;2022-08-01T04:58:39;22.90;92.20
6654;DHT22;3363;50.942;7.034;2022-08-01T05:01:06;23.10;91.10
6654;DHT22;3363;50.942;7.034;2022-08-01T05:03:33;23.00;92.70
6654;DHT22;3363;50.942;7.034;2022-08-01T05:06:00;22.90;92.60
6654;DHT22;3363;50.942;7.034;2022-08-01T05:08:27;23.00;92.50
6654;DHT22;3363;50.942;7.034;2022-08-01T05:10:56;23.10;92.40
6654;DHT22;3363;50.942;7.034;2022-08-01T05:13:23;23.20;91.20
6654;DHT22;3363;50.942;7.034;2022-08-01T05:15:50;23.20;90.50
6654;DHT22;3363;50.942;7.034;2022-08-01T05:18:17;23.30;91.10
6654;DHT22;3363;50.942;7.034;2022-08-01T05:20:59;23.10;92.10
6654;DHT22;3363;50.942;7.034;2022-08-01T05:23:27;23.20;91.70
6654;DHT22;3363;50.942;7.034;2022-08-01T05:25:55;23.00;92.60
6654;DHT22;3363;50.942;7.034;2022-08-01T05:30:55;23.10;92.10
6654;DHT22;3363;50.942;7.034;2022-08-01T05:33:22;23.00;95.50
6654;DHT22;3363;50.942;7.034;2022-08-01T05:35:51;22.80;93.90
6654;DHT22;3363;50.942;7.034;2022-08-01T05:38:18;22.90;93.80
6654;DHT22;3363;50.942;7.034;2022-08-01T05:40:45;23.10;94.10
6654;DHT22;3363;50.942;7.034;2022-08-01T05:43:13;23.00;93.80
6654;DHT22;3363;50.942;7.034;2022-08-01T05:45:40;22.90;94.40
6654;DHT22;3363;50.942;7.034;2022-08-01T05:48:07;22.90;96.70
6654;DHT22;3363;50.942;7.034;2022-08-01T05:50:35;22.90;94.80
6654;DHT22;3363;50.942;7.034;2022-08-01T05:55:38;22.90;96.60
6654;DHT22;3363;50.942;7.034;2022-08-01T05:58:06;22.80;96.20
6654;DHT22;3363;50.942;7.034;2022-08-01T06:00:35;22.90;95.00
6654;DHT22;3363;50.942;7.034;2022-08-01T06:03:02;22.90;98.40
6654;DHT22;3363;50.942;7.034;2022-08-01T06:05:29;22.80;96.90
6654;DHT22;3363;50.942;7.034;2022-08-01T06:07:56;22.80;97.30
6654;DHT22;3363;50.942;7.034;2022-08-01T06:10:24;23.00;96.00
6654;DHT22;3363;50.942;7.034;2022-08-01T06:12:51;23.10;94.90
6654;DHT22;3363;50.942;7.034;2022-08-01T06:15:18;23.10;94.00
6654;DHT22;3363;50.942;7.034;2022-08-01T06:17:46;23.20;93.60
6654;DHT22;3363;50.942;7.034;2022-08-01T06:20:13;23.20;94.00
6654;DHT22;3363;50.942;7.034;2022-08-01T06:22:40;23.20;93.30
6654;DHT22;3363;50.942;7.034;2022-08-01T06:25:08;23.20;92.90
6654;DHT22;3363;50.942;7.034;2022-08-01T06:27:35;23.40;92.60
6654;DHT22;3363;50.942;7.034;2022-08-01T06:30:02;23.50;91.20
6654;DHT22;3363;50.942;7.034;2022-08-01T06:32:29;23.60;90.00
6654;DHT22;3363;50.942;7.034;2022-08-01T06:34:58;23.50;91.00
6654;DHT22;3363;50.942;7.034;2022-08-01T06:37:28;23.50;90.60
6654;DHT22;3363;50.942;7.034;2022-08-01T06:39:55;23.60;90.60
6654;DHT22;3363;50.942;7.034;2022-08-01T06:42:22;23.50;90.70
6654;DHT22;3363;50.942;7.034;2022-08-01T06:44:49;23.40;91.20
6654;DHT22;3363;50.942;7.034;2022-08-01T06:47:16;23.40;91.60
6654;DHT22;3363;50.942;7.034;2022-08-01T06:49:43;23.30;91.30
6654;DHT22;3363;50.942;7.034;2022-08-01T06:52:11;23.20;91.70
6654;DHT22;3363;50.942;7.034;2022-08-01T06:54:38;23.30;91.20
6654;DHT22;3363;50.942;7.034;2022-08-01T06:57:05;23.50;90.60
6654;DHT22;3363;50.942;7.034;2022-08-01T06:59:33;23.40;90.70
6654;DHT22;3363;50.942;7.034;2022-08-01T07:02:00;23.40;90.60
6654;DHT22;3363;50.942;7.034;2022-08-01T07:04:27;23.50;89.70
6654;DHT22;3363;50.942;7.034;2022-08-01T07:06:54;23.40;87.50
6654;DHT22;3363;50.942;7.034;2022-08-01T07:09:22;23.30;90.80
6654;DHT22;3363;50.942;7.034;2022-08-01T07:12:00;23.20;90.70
6654;DHT22;3363;50.942;7.034;2022-08-01T07:14:27;23.20;90.30
6654;DHT22;3363;50.942;7.034;2022-08-01T07:16:54;23.00;91.60
6654;DHT22;3363;50.942;7.034;2022-08-01T07:19:21;22.90;92.10
6654;DHT22;3363;50.942;7.034;2022-08-01T07:21:47;23.10;91.00
6654;DHT22;3363;50.942;7.034;2022-08-01T07:24:14;23.10;90.80
6654;DHT22;3363;50.942;7.034;2022-08-01T07:26:44;23.20;91.10
6654;DHT22;3363;50.942;7.034;2022-08-01T07:29:12;23.10;90.90
6654;DHT22;3363;50.942;7.034;2022-08-01T07:31:39;22.90;91.40
6654;DHT22;3363;50.942;7.034;2022-08-01T07:34:05;23.00;90.50
6654;DHT22;3363;50.942;7.034;2022-08-01T07:36:32;23.10;90.60
6654;DHT22;3363;50.942;7.034;2022-08-01T07:38:59;23.20;90.40
6654;DHT22;3363;50.942;7.034;2022-08-01T07:41:26;23.00;90.20
6654;DHT22;3363;50.942;7.034;2022-08-01T07:43:54;23.00;92.00
6654;DHT22;3363;50.942;7.034;2022-08-01T07:46:21;23.10;90.40
6654;DHT22;3363;50.942;7.034;2022-08-01T07:48:48;23.30;89.20
6654;DHT22;3363;50.942;7.034;2022-08-01T07:51:15;23.40;86.40
6654;DHT22;3363;50.942;7.034;2022-08-01T07:53:42;23.50;84.10
6654;DHT22;3363;50.942;7.034;2022-08-01T07:56:09;23.30;85.90
6654;DHT22;3363;50.942;7.034;2022-08-01T07:58:36;23.10;86.90
6654;DHT22;3363;50.942;7.034;2022-08-01T08:01:04;23.10;87.60
6654;DHT22;3363;50.942;7.034;2022-08-01T08:03:31;23.00;89.50
6654;DHT22;3363;50.942;7.034;2022-08-01T08:05:58;22.90;90.50
6654;DHT22;3363;50.942;7.034;2022-08-01T08:08:25;22.90;90.60
6654;DHT22;3363;50.942;7.034;2022-08-01T08:10:52;23.00;90.20
6654;DHT22;3363;50.942;7.034;2022-08-01T08:13:19;23.30;88.10
6654;DHT22;3363;50.942;7.034;2022-08-01T08:15:46;23.40;86.50
6654;DHT22;3363;50.942;7.034;2022-08-01T08:18:15;23.40;86.90
6654;DHT22;3363;50.942;7.034;2022-08-01T08:20:42;23.30;90.50
6654;DHT22;3363;50.942;7.034;2022-08-01T08:23:09;23.40;87.50
6654;DHT22;3363;50.942;7.034;2022-08-01T08:25:50;23.50;85.60
6654;DHT22;3363;50.942;7.034;2022-08-01T08:28:17;23.50;86.20
6654;DHT22;3363;50.942;7.034;2022-08-01T08:30:44;23.20;86.60
6654;DHT22;3363;50.942;7.034;2022-08-01T08:33:11;23.50;86.70
6654;DHT22;3363;50.942;7.034;2022-08-01T08:35:40;23.90;80.30
6654;DHT22;3363;50.942;7.034;2022-08-01T08:38:07;23.70;81.70
6654;DHT22;3363;50.942;7.034;2022-08-01T08:40:34;23.60;84.40
6654;DHT22;3363;50.942;7.034;2022-08-01T08:43:03;23.60;82.90
6654;DHT22;3363;50.942;7.034;2022-08-01T08:45:30;23.70;80.90
6654;DHT22;3363;50.942;7.034;2022-08-01T08:47:57;23.80;80.00
6654;DHT22;3363;50.942;7.034;2022-08-01T08:50:25;23.70;80.10
6654;DHT22;3363;50.942;7.034;2022-08-01T08:52:53;23.70;80.80
6654;DHT22;3363;50.942;7.034;2022-08-01T08:55:21;23.70;81.80
6654;DHT22;3363;50.942;7.034;2022-08-01T08:57:50;23.70;82.30
6654;DHT22;3363;50.942;7.034;2022-08-01T09:00:18;23.80;80.80
6654;DHT22;3363;50.942;7.034;2022-08-01T09:02:45;23.70;81.70
6654;DHT22;3363;50.942;7.034;2022-08-01T09:05:14;23.50;81.50
6654;DHT22;3363;50.942;7.034;2022-08-01T09:07:42;23.70;79.60
6654;DHT22;3363;50.942;7.034;2022-08-01T09:10:10;23.80;78.30
6654;DHT22;3363;50.942;7.034;2022-08-01T09:12:37;23.80;77.40
6654;DHT22;3363;50.942;7.034;2022-08-01T09:15:04;23.70;77.30
6654;DHT22;3363;50.942;7.034;2022-08-01T09:17:39;23.80;76.40
6654;DHT22;3363;50.942;7.034;2022-08-01T09:20:07;23.70;74.60
6654;DHT22;3363;50.942;7.034;2022-08-01T09:22:34;23.60;77.60
6654;DHT22;3363;50.942;7.034;2022-08-01T09:25:03;23.70;76.80
6654;DHT22;3363;50.942;7.034;2022-08-01T09:27:33;23.70;77.60
6654;DHT22;3363;50.942;7.034;2022-08-01T09:30:07;23.60;78.10
6654;DHT22;3363;50.942;7.034;2022-08-01T09:32:35;23.80;77.60
6654;DHT22;3363;50.942;7.034;2022-08-01T09:37:48;23.90;76.20
6654;DHT22;3363;50.942;7.034;2022-08-01T09:40:16;24.00;75.50
6654;DHT22;3363;50.942;7.034;2022-08-01T09:42:44;24.00;75.60
6654;DHT22;3363;50.942;7.034;2022-08-01T09:45:31;23.80;74.20
6654;DHT22;3363;50.942;7.034;2022-08-01T09:47:58;23.80;76.60
6654;DHT22;3363;50.942;7.034;2022-08-01T09:50:38;23.80;75.10
6654;DHT22;3363;50.942;7.034;2022-08-01T09:53:06;23.90;72.90
6654;DHT22;3363;50.942;7.034;2022-08-01T09:55:32;23.80;74.20
6654;DHT22;3363;50.942;7.034;2022-08-01T09:58:01;23.80;74.20
6654;DHT22;3363;50.942;7.034;2022-08-01T10:00:29;23.90;74.30
6654;DHT22;3363;50.942;7.034;2022-08-01T10:02:56;24.00;74.10
6654;DHT22;3363;50.942;7.034;2022-08-01T10:05:30;23.90;74.40
6654;DHT22;3363;50.942;7.034;2022-08-01T10:07:58;24.00;73.70
6654;DHT22;3363;50.942;7.034;2022-08-01T10:10:26;24.30;70.40
6654;DHT22;3363;50.942;7.034;2022-08-01T10:12:53;24.40;69.50
6654;DHT22;3363;50.942;7.034;2022-08-01T10:15:23;24.80;66.20
6654;DHT22;3363;50.942;7.034;2022-08-01T10:17:51;24.90;64.90
6654;DHT22;3363;50.942;7.034;2022-08-01T10:20:22;25.00;64.70
6654;DHT22;3363;50.942;7.034;2022-08-01T10:22:50;25.00;62.90
6654;DHT22;3363;50.942;7.034;2022-08-01T10:25:18;25.20;62.80
6654;DHT22;3363;50.942;7.034;2022-08-01T10:27:47;25.30;61.80
6654;DHT22;3363;50.942;7.034;2022-08-01T10:30:15;25.40;61.10
6654;DHT22;3363;50.942;7.034;2022-08-01T10:32:44;25.50;60.70
6654;DHT22;3363;50.942;7.034;2022-08-01T10:35:12;25.70;58.30
6654;DHT22;3363;50.942;7.034;2022-08-01T10:37:43;25.80;58.40
6654;DHT22;3363;50.942;7.034;2022-08-01T10:40:11;25.90;58.40
6654;DHT22;3363;50.942;7.034;2022-08-01T10:42:39;26.00;55.70
6654;DHT22;3363;50.942;7.034;2022-08-01T10:45:06;25.70;57.80
6654;DHT22;3363;50.942;7.034;2022-08-01T10:47:37;25.60;58.50
6654;DHT22;3363;50.942;7.034;2022-08-01T10:50:13;25.40;59.00
6654;DHT22;3363;50.942;7.034;2022-08-01T10:55:45;25.60;58.50
6654;DHT22;3363;50.942;7.034;2022-08-01T10:58:20;25.40;59.00
6654;DHT22;3363;50.942;7.034;2022-08-01T11:03:56;25.10;60.50
6654;DHT22;3363;50.942;7.034;2022-08-01T11:06:28;25.30;59.90
6654;DHT22;3363;50.942;7.034;2022-08-01T11:09:03;25.10;60.60
6654;DHT22;3363;50.942;7.034;2022-08-01T11:11:31;25.20;60.40
6654;DHT22;3363;50.942;7.034;2022-08-01T11:14:01;25.50;59.20
6654;DHT22;3363;50.942;7.034;2022-08-01T11:16:33;25.70;58.40
6654;DHT22;3363;50.942;7.034;2022-08-01T11:19:01;26.00;58.10
6654;DHT22;3363;50.942;7.034;2022-08-01T11:27:24;25.70;57.60
6654;DHT22;3363;50.942;7.034;2022-08-01T11:32:52;25.70;57.10
6654;DHT22;3363;50.942;7.034;2022-08-01T11:35:20;25.70;56.90
6654;DHT22;3363;50.942;7.034;2022-08-01T11:37:50;25.80;57.10
6654;DHT22;3363;50.942;7.034;2022-08-01T11:40:21;25.60;58.10
6654;DHT22;3363;50.942;7.034;2022-08-01T11:42:49;25.70;57.40
6654;DHT22;3363;50.942;7.034;2022-08-01T11:45:46;25.90;54.50
6654;DHT22;3363;50.942;7.034;2022-08-01T11:48:17;26.20;53.70
6654;DHT22;3363;50.942;7.034;2022-08-01T11:50:44;26.50;52.60
6654;DHT22;3363;50.942;7.034;2022-08-01T11:53:13;26.20;53.20
6654;DHT22;3363;50.942;7.034;2022-08-01T11:55:43;26.50;52.30
6654;DHT22;3363;50.942;7.034;2022-08-01T11:58:12;26.60;51.10
6654;DHT22;3363;50.942;7.034;2022-08-01T12:00:39;26.30;52.50
6654;DHT22;3363;50.942;7.034;2022-08-01T12:03:07;26.00;54.00
6654;DHT22;3363;50.942;7.034;2022-08-01T12:05:35;25.90;53.10
6654;DHT22;3363;50.942;7.034;2022-08-01T12:08:03;25.70;54.80
6654;DHT22;3363;50.942;7.034;2022-08-01T12:10:33;25.80;54.30
6654;DHT22;3363;50.942;7.034;2022-08-01T12:13:03;26.10;53.80
6654;DHT22;3363;50.942;7.034;2022-08-01T12:15:32;26.20;53.00
6654;DHT22;3363;50.942;7.034;2022-08-01T12:18:00;26.30;52.60
6654;DHT22;3363;50.942;7.034;2022-08-01T12:20:30;26.50;51.40
6654;DHT22;3363;50.942;7.034;2022-08-01T12:22:59;26.50;51.50
6654;DHT22;3363;50.942;7.034;2022-08-01T12:25:26;26.30;52.20
6654;DHT22;3363;50.942;7.034;2022-08-01T12:27:58;26.30;51.40
6654;DHT22;3363;50.942;7.034;2022-08-01T12:30:26;26.00;52.30
6654;DHT22;3363;50.942;7.034;2022-08-01T12:32:53;25.90;52.20
6654;DHT22;3363;50.942;7.034;2022-08-01T12:35:22;25.90;52.20
6654;DHT22;3363;50.942;7.034;2022-08-01T12:37:50;25.80;53.40
6654;DHT22;3363;50.942;7.034;2022-08-01T12:40:19;25.70;53.40
6654;DHT22;3363;50.942;7.034;2022-08-01T12:42:47;25.70;52.30
6654;DHT22;3363;50.942;7.034;2022-08-01T12:45:17;25.50;53.90
6654;DHT22;3363;50.942;7.034;2022-08-01T12:47:46;25.60;53.20
6654;DHT22;3363;50.942;7.034;2022-08-01T12:50:14;25.70;53.10
6654;DHT22;3363;50.942;7.034;2022-08-01T12:52:42;25.70;52.40
6654;DHT22;3363;50.942;7.034;2022-08-01T12:55:12;25.80;52.40
6654;DHT22;3363;50.942;7.034;2022-08-01T12:57:40;25.90;51.80
6654;DHT22;3363;50.942;7.034;2022-08-01T13:00:10;25.90;51.10
6654;DHT22;3363;50.942;7.034;2022-08-01T13:02:44;26.00;49.70
6654;DHT22;3363;50.942;7.034;2022-08-01T13:05:11;26.10;49.00
6654;DHT22;3363;50.942;7.034;2022-08-01T13:07:40;26.30;47.60
6654;DHT22;3363;50.942;7.034;2022-08-01T13:10:12;26.50;47.30
6654;DHT22;3363;50.942;7.034;2022-08-01T13:12:39;26.40;47.00
6654;DHT22;3363;50.942;7.034;2022-08-01T13:15:17;26.50;46.80
6654;DHT22;3363;50.942;7.034;2022-08-01T13:17:46;26.30;46.10
6654;DHT22;3363;50.942;7.034;2022-08-01T13:20:21;26.40;47.40
6654;DHT22;3363;50.942;7.034;2022-08-01T13:22:48;26.40;47.30
6654;DHT22;3363;50.942;7.034;2022-08-01T13:25:16;26.40;48.70
6654;DHT22;3363;50.942;7.034;2022-08-01T13:27:43;26.50;48.10
6654;DHT22;3363;50.942;7.034;2022-08-01T13:30:10;26.50;47.70
6654;DHT22;3363;50.942;7.034;2022-08-01T13:32:38;26.40;48.00
6654;DHT22;3363;50.942;7.034;2022-08-01T13:35:09;26.30;47.80
6654;DHT22;3363;50.942;7.034;2022-08-01T13:37:37;26.20;47.10
6654;DHT22;3363;50.942;7.034;2022-08-01T13:40:05;26.00;47.80
6654;DHT22;3363;50.942;7.034;2022-08-01T13:42:32;26.10;47.60
6654;DHT22;3363;50.942;7.034;2022-08-01T13:44:59;26.10;47.60
6654;DHT22;3363;50.942;7.034;2022-08-01T13:47:26;26.10;46.90
6654;DHT22;3363;50.942;7.034;2022-08-01T13:49:53;26.30;46.30
6654;DHT22;3363;50.942;7.034;2022-08-01T13:52:22;26.20;46.20
6654;DHT22;3363;50.942;7.034;2022-08-01T13:54:48;26.00;43.40
6654;DHT22;3363;50.942;7.034;2022-08-01T13:57:15;25.90;44.80
6654;DHT22;3363;50.942;7.034;2022-08-01T13:59:42;25.90;46.00
6654;DHT22;3363;50.942;7.034;2022-08-01T14:02:09;26.10;45.00
6654;DHT22;3363;50.942;7.034;2022-08-01T14:04:36;26.10;44.20
6654;DHT22;3363;50.942;7.034;2022-08-01T14:07:03;26.00;44.70
6654;DHT22;3363;50.942;7.034;2022-08-01T14:09:31;26.00;45.20
6654;DHT22;3363;50.942;7.034;2022-08-01T14:11:58;26.10;43.70
6654;DHT22;3363;50.942;7.034;2022-08-01T14:14:25;25.80;44.80
6654;DHT22;3363;50.942;7.034;2022-08-01T14:16:52;25.80;45.30
6654;DHT22;3363;50.942;7.034;2022-08-01T14:19:19;25.80;45.10
6654;DHT22;3363;50.942;7.034;2022-08-01T14:21:46;25.90;45.40
6654;DHT22;3363;50.942;7.034;2022-08-01T14:24:13;25.90;44.10
6654;DHT22;3363;50.942;7.034;2022-08-01T14:26:41;26.00;44.80
6654;DHT22;3363;50.942;7.034;2022-08-01T14:29:08;26.00;43.50
6654;DHT22;3363;50.942;7.034;2022-08-01T14:31:35;26.00;45.10
6654;DHT22;3363;50.942;7.034;2022-08-01T14:35:38;25.90;44.40
6654;DHT22;3363;50.942;7.034;2022-08-01T14:38:04;26.00;45.50
6654;DHT22;3363;50.942;7.034;2022-08-01T14:40:31;26.00;45.00
6654;DHT22;3363;50.942;7.034;2022-08-01T14:42:58;26.20;44.80
6654;DHT22;3363;50.942;7.034;2022-08-01T14:45:26;26.10;43.60
6654;DHT22;3363;50.942;7.034;2022-08-01T14:47:53;26.20;44.00
6654;DHT22;3363;50.942;7.034;2022-08-01T14:50:20;26.30;44.60
6654;DHT22;3363;50.942;7.034;2022-08-01T14:52:50;26.30;42.90
6654;DHT22;3363;50.942;7.034;2022-08-01T14:55:17;26.40;43.70
6654;DHT22;3363;50.942;7.034;2022-08-01T14:57:46;26.40;42.30
6654;DHT22;3363;50.942;7.034;2022-08-01T15:00:13;26.40;43.00
6654;DHT22;3363;50.942;7.034;2022-08-01T15:02:40;26.30;43.20
6654;DHT22;3363;50.942;7.034;2022-08-01T15:05:08;26.40;42.90
6654;DHT22;3363;50.942;7.034;2022-08-01T15:07:34;26.20;43.20
6654;DHT22;3363;50.942;7.034;2022-08-01T15:10:04;26.10;44.10
6654;DHT22;3363;50.942;7.034;2022-08-01T15:12:31;26.00;44.70
6654;DHT22;3363;50.942;7.034;2022-08-01T15:14:57;26.00;45.70
6654;DHT22;3363;50.942;7.034;2022-08-01T15:17:25;26.00;45.60
6654;DHT22;3363;50.942;7.034;2022-08-01T15:19:55;26.10;45.50
6654;DHT22;3363;50.942;7.034;2022-08-01T15:22:22;26.20;45.40
6654;DHT22;3363;50.942;7.034;2022-08-01T15:24:49;26.20;44.90
6654;DHT22;3363;50.942;7.034;2022-08-01T15:27:17;26.10;45.30
6654;DHT22;3363;50.942;7.034;2022-08-01T15:29:44;26.20;45.40
6654;DHT22;3363;50.942;7.034;2022-08-01T15:32:11;26.20;45.30
6654;DHT22;3363;50.942;7.034;2022-08-01T15:34:38;26.30;45.80
6654;DHT22;3363;50.942;7.034;2022-08-01T15:37:05;26.30;44.80
6654;DHT22;3363;50.942;7.034;2022-08-01T15:39:32;26.20;45.60
6654;DHT22;3363;50.942;7.034;2022-08-01T15:42:00;26.20;44.90
6654;DHT22;3363;50.942;7.034;2022-08-01T15:44:29;26.30;45.30
6654;DHT22;3363;50.942;7.034;2022-08-01T15:46:56;26.20;45.80
6654;DHT22;3363;50.942;7.034;2022-08-01T15:49:23;26.10;46.30
6654;DHT22;3363;50.942;7.034;2022-08-01T15:51:50;26.10;46.00
6654;DHT22;3363;50.942;7.034;2022-08-01T15:54:17;26.00;45.80
6654;DHT22;3363;50.942;7.034;2022-08-01T15:56:43;25.90;46.60
6654;DHT22;3363;50.942;7.034;2022-08-01T15:59:10;26.00;46.10
6654;DHT22;3363;50.942;7.034;2022-08-01T16:01:38;26.10;45.40
6654;DHT22;3363;50.942;7.034;2022-08-01T16:04:05;25.90;46.40
6654;DHT22;3363;50.942;7.034;2022-08-01T16:06:33;26.00;46.70
6654;DHT22;3363;50.942;7.034;2022-08-01T16:09:00;26.00;47.00
6654;DHT22;3363;50.942;7.034;2022-08-01T16:11:27;26.20;47.90
6654;DHT22;3363;50.942;7.034;2022-08-01T16:13:53;26.30;48.30
6654;DHT22;3363;50.942;7.034;2022-08-01T16:16:20;26.30;47.90
6654;DHT22;3363;50.942;7.034;2022-08-01T16:18:48;26.20;47.70
6654;DHT22;3363;50.942;7.034;2022-08-01T16:21:15;26.00;48.10
6654;DHT22;3363;50.942;7.034;2022-08-01T16:23:43;25.90;48.70
6654;DHT22;3363;50.942;7.034;2022-08-01T16:26:10;25.80;49.20
6654;DHT22;3363;50.942;7.034;2022-08-01T16:28:37;25.70;49.40
6654;DHT22;3363;50.942;7.034;2022-08-01T16:31:04;25.70;49.20
6654;DHT22;3363;50.942;7.034;2022-08-01T16:33:31;25.70;49.50